Time;durP1;ratioP1;P1;durP2;ratioP2;P2;SDS_P1;SDS_P2;PMS_P1;PMS_P2;Temp;Humidity;BMP_temperature;BMP_pressure;BME280_temperature;BME280_humidity;BME280_pressure;Samples;Min_cycle;Max_cycle;Signal;HPM_P1;HPM_P2
2021/10/14 00:01:08;;;;;;;24.73;9.70;;;3.90;99.90;;;;;;4969325;28;20219;-59
2021/10/14 00:03:33;;;;;;;18.80;8.53;;;3.90;99.90;;;;;;4980359;28;20232;-59
2021/10/14 00:05:59;;;;;;;23.30;9.00;;;3.90;99.90;;;;;;4970654;28;20469;-58
2021/10/14 00:08:25;;;;;;;11.60;7.40;;;3.90;99.90;;;;;;4965798;28;20713;-58
2021/10/14 00:10:51;;;;;;;18.80;7.40;;;4.00;99.90;;;;;;4972381;28;20189;-58
2021/10/14 00:13:16;;;;;;;20.40;8.60;;;3.90;99.90;;;;;;4967860;28;20659;-59
2021/10/14 00:15:42;;;;;;;49.00;9.40;;;3.90;99.90;;;;;;4971126;28;20208;-59
2021/10/14 00:18:08;;;;;;;12.27;7.50;;;3.90;99.90;;;;;;4966256;28;20181;-59
2021/10/14 00:20:34;;;;;;;13.73;7.50;;;3.90;99.90;;;;;;4965248;28;20456;-59
2021/10/14 00:23:00;;;;;;;11.10;6.83;;;3.90;99.90;;;;;;4973220;28;20225;-58
2021/10/14 00:25:25;;;;;;;13.60;7.30;;;3.90;99.90;;;;;;4966723;28;20532;-56
2021/10/14 00:27:52;;;;;;;13.23;7.53;;;3.90;99.90;;;;;;4969112;28;20236;-58
2021/10/14 00:30:19;;;;;;;36.67;8.07;;;3.90;99.90;;;;;;4969802;28;20174;-58
2021/10/14 00:32:44;;;;;;;20.30;7.40;;;3.90;99.90;;;;;;4970182;28;20461;-59
2021/10/14 00:35:10;;;;;;;20.70;8.13;;;3.80;99.90;;;;;;4963676;28;20975;-59
2021/10/14 00:37:36;;;;;;;77.20;9.23;;;3.80;99.90;;;;;;4968922;28;20190;-58
2021/10/14 00:40:02;;;;;;;25.00;9.33;;;3.80;99.90;;;;;;4968483;28;20181;-58
2021/10/14 00:42:28;;;;;;;89.23;11.60;;;3.70;99.90;;;;;;4970153;28;20293;-58
2021/10/14 00:44:55;;;;;;;26.70;10.80;;;3.60;99.90;;;;;;4970294;28;20532;-58
2021/10/14 00:47:26;;;;;;;55.10;14.07;;;3.60;99.90;;;;;;4968427;28;20233;-58
2021/10/14 00:49:53;;;;;;;40.93;13.43;;;3.60;99.90;;;;;;4967621;28;20446;-58
2021/10/14 00:52:19;;;;;;;128.10;15.17;;;3.60;99.90;;;;;;4968176;28;20439;-57
2021/10/14 00:54:46;;;;;;;72.10;12.13;;;3.50;99.90;;;;;;4968978;28;20462;-57
2021/10/14 00:57:13;;;;;;;69.60;14.67;;;3.50;99.90;;;;;;4988017;28;20189;-59
2021/10/14 00:59:40;;;;;;;166.43;19.80;;;3.50;99.90;;;;;;4964347;28;20436;-58
2021/10/14 01:02:07;;;;;;;76.80;16.20;;;3.40;99.90;;;;;;4963087;28;20811;-59
2021/10/14 01:04:33;;;;;;;61.77;16.33;;;3.30;99.90;;;;;;4965334;28;20456;-58
2021/10/14 01:06:59;;;;;;;119.13;16.80;;;3.30;99.90;;;;;;4967122;28;20476;-57
2021/10/14 01:09:25;;;;;;;92.93;15.83;;;3.20;99.90;;;;;;4965846;28;20463;-59
2021/10/14 01:11:51;;;;;;;71.83;15.97;;;3.20;99.90;;;;;;4965989;28;20439;-58
2021/10/14 01:14:17;;;;;;;88.97;16.00;;;3.10;99.90;;;;;;4968936;28;20434;-58
2021/10/14 01:16:45;;;;;;;47.30;16.53;;;3.10;99.90;;;;;;4971681;28;20748;-58
2021/10/14 01:19:11;;;;;;;69.17;17.40;;;3.10;99.90;;;;;;4965207;28;20178;-58
2021/10/14 01:21:39;;;;;;;95.17;16.90;;;3.10;99.90;;;;;;4966356;28;20456;-57
2021/10/14 01:24:05;;;;;;;56.77;15.30;;;3.20;99.90;;;;;;4969446;28;20970;-58
2021/10/14 01:26:31;;;;;;;146.87;18.37;;;3.10;99.90;;;;;;4963711;28;20513;-60
2021/10/14 01:28:57;;;;;;;147.30;17.50;;;3.10;99.90;;;;;;4970227;28;20552;-58
2021/10/14 01:31:27;;;;;;;67.50;16.47;;;3.10;99.90;;;;;;4969794;28;20267;-58
2021/10/14 01:33:54;;;;;;;101.67;15.53;;;3.10;99.90;;;;;;4965294;28;20441;-58
2021/10/14 01:36:19;;;;;;;133.57;16.40;;;3.00;99.90;;;;;;4966199;28;20889;-59
2021/10/14 01:38:45;;;;;;;43.50;12.40;;;3.00;99.90;;;;;;4964749;28;21016;-59
2021/10/14 01:41:12;;;;;;;42.07;12.80;;;3.00;99.90;;;;;;4960549;28;20204;-58
2021/10/14 01:43:38;;;;;;;39.97;11.60;;;3.00;99.90;;;;;;4962502;28;20212;-58
2021/10/14 01:46:04;;;;;;;36.40;12.73;;;3.00;99.90;;;;;;4959697;28;20462;-58
2021/10/14 01:48:30;;;;;;;41.00;11.50;;;3.00;99.90;;;;;;4962463;28;20420;-58
2021/10/14 01:50:57;;;;;;;25.50;11.03;;;3.00;99.90;;;;;;4961279;28;20465;-57
2021/10/14 01:53:25;;;;;;;29.73;10.13;;;3.00;99.90;;;;;;4962677;28;20946;-59
2021/10/14 01:55:51;;;;;;;27.30;10.30;;;3.10;99.90;;;;;;4956467;28;20860;-58
2021/10/14 01:58:18;;;;;;;34.27;9.70;;;3.00;99.90;;;;;;4977318;28;20428;-58
2021/10/14 02:00:45;;;;;;;20.27;9.07;;;3.00;99.90;;;;;;4955730;28;21040;-59
2021/10/14 02:03:11;;;;;;;69.43;10.30;;;3.00;99.90;;;;;;4961749;28;20473;-58
2021/10/14 02:05:36;;;;;;;221.53;16.80;;;3.00;99.90;;;;;;4960164;28;20474;-58
2021/10/14 02:08:03;;;;;;;91.13;12.20;;;3.00;99.90;;;;;;4961866;28;20194;-59
2021/10/14 02:10:29;;;;;;;110.63;11.90;;;2.90;99.90;;;;;;4957640;28;20179;-56
2021/10/14 02:12:55;;;;;;;42.03;9.23;;;2.90;99.90;;;;;;4975962;28;20816;-58
2021/10/14 02:15:21;;;;;;;142.63;11.03;;;2.80;99.90;;;;;;4960651;28;20520;-60
2021/10/14 02:17:47;;;;;;;34.27;8.47;;;2.80;99.90;;;;;;4976621;28;20444;-59
2021/10/14 02:20:13;;;;;;;128.80;13.20;;;2.80;99.90;;;;;;4960638;28;20182;-59
2021/10/14 02:22:39;;;;;;;27.47;8.77;;;2.80;99.90;;;;;;4959416;28;20656;-59
2021/10/14 02:25:07;;;;;;;80.77;10.97;;;2.70;99.90;;;;;;4960634;28;20458;-59
2021/10/14 02:27:33;;;;;;;29.63;9.00;;;2.70;99.90;;;;;;4963859;28;20468;-59
2021/10/14 02:29:59;;;;;;;47.13;9.20;;;2.70;99.90;;;;;;4964528;28;20426;-59
2021/10/14 02:32:25;;;;;;;50.27;8.50;;;2.70;99.90;;;;;;4961531;28;20445;-58
2021/10/14 02:34:53;;;;;;;24.10;7.10;;;2.70;99.90;;;;;;4962322;28;20198;-57
2021/10/14 02:37:19;;;;;;;22.13;7.50;;;2.70;99.90;;;;;;4963801;28;20174;-58
2021/10/14 02:39:45;;;;;;;24.00;7.80;;;2.70;99.90;;;;;;4976411;28;20495;-58
2021/10/14 02:42:11;;;;;;;18.57;7.50;;;2.70;99.90;;;;;;4965412;28;20813;-58
2021/10/14 02:44:36;;;;;;;19.37;7.70;;;2.70;99.90;;;;;;4964514;28;20279;-59
2021/10/14 02:47:02;;;;;;;24.13;10.50;;;2.70;99.90;;;;;;4964992;28;20247;-59
2021/10/14 02:49:28;;;;;;;22.00;8.83;;;2.70;99.90;;;;;;4963081;28;20214;-58
2021/10/14 02:51:53;;;;;;;13.00;6.43;;;2.70;99.90;;;;;;4963491;28;20221;-58
2021/10/14 02:54:19;;;;;;;16.20;7.23;;;2.70;99.90;;;;;;4964133;28;20182;-58
2021/10/14 02:56:45;;;;;;;16.77;7.57;;;2.70;99.90;;;;;;4966346;28;20232;-58
2021/10/14 02:59:11;;;;;;;21.10;8.10;;;2.70;99.90;;;;;;4978131;28;20552;-58
2021/10/14 03:01:37;;;;;;;21.30;7.00;;;2.70;99.90;;;;;;4963735;28;21461;-59
2021/10/14 03:04:03;;;;;;;18.80;7.27;;;2.70;99.90;;;;;;4979502;28;20555;-59
2021/10/14 03:06:29;;;;;;;16.93;7.07;;;2.70;99.90;;;;;;4963502;28;20545;-58
2021/10/14 03:08:54;;;;;;;20.23;7.00;;;2.70;99.90;;;;;;4966527;28;20558;-59
2021/10/14 03:11:20;;;;;;;20.90;6.80;;;2.70;99.90;;;;;;4962956;28;20460;-59
2021/10/14 03:13:46;;;;;;;21.53;6.10;;;2.70;99.90;;;;;;4963164;28;20834;-58
2021/10/14 03:16:14;;;;;;;120.93;10.20;;;2.70;99.90;;;;;;4977819;28;20214;-59
2021/10/14 03:18:39;;;;;;;117.40;10.57;;;2.70;99.90;;;;;;4963975;28;20186;-58
2021/10/14 03:21:05;;;;;;;92.67;11.67;;;2.60;99.90;;;;;;4961630;28;20517;-59
2021/10/14 03:23:31;;;;;;;52.40;10.73;;;2.50;99.90;;;;;;4961662;28;20213;-59
2021/10/14 03:25:57;;;;;;;39.40;8.47;;;2.50;99.90;;;;;;4965663;28;20460;-57
2021/10/14 03:28:23;;;;;;;158.90;12.53;;;2.50;99.90;;;;;;4966155;28;20185;-59
2021/10/14 03:30:48;;;;;;;28.40;10.50;;;2.40;99.90;;;;;;4960842;28;20189;-59
2021/10/14 03:33:14;;;;;;;35.57;10.53;;;2.40;99.90;;;;;;4963290;28;21146;-58
2021/10/14 03:35:40;;;;;;;66.17;11.97;;;2.40;99.90;;;;;;4979226;28;20217;-58
2021/10/14 03:38:05;;;;;;;67.60;11.27;;;2.30;99.90;;;;;;4961047;28;20185;-59
2021/10/14 03:40:31;;;;;;;62.53;9.67;;;2.40;99.90;;;;;;4978353;28;20192;-59
2021/10/14 03:42:57;;;;;;;29.90;8.00;;;2.40;99.90;;;;;;4963831;28;20227;-58
2021/10/14 03:45:22;;;;;;;43.53;10.97;;;2.30;99.90;;;;;;4961013;28;20226;-58
2021/10/14 03:47:48;;;;;;;55.50;9.30;;;2.30;99.90;;;;;;4960464;28;20174;-58
2021/10/14 03:50:14;;;;;;;35.17;8.30;;;2.30;99.90;;;;;;4958691;28;20190;-59
2021/10/14 03:52:40;;;;;;;18.93;7.90;;;2.20;99.90;;;;;;4966432;28;20532;-58
2021/10/14 03:55:07;;;;;;;25.60;8.23;;;2.20;99.90;;;;;;4969454;28;20217;-59
2021/10/14 03:57:33;;;;;;;17.63;7.37;;;2.20;99.90;;;;;;4964518;28;20271;-58
2021/10/14 03:59:59;;;;;;;20.80;8.20;;;2.30;99.90;;;;;;4952375;28;20499;-58
2021/10/14 04:02:24;;;;;;;15.73;7.00;;;2.20;99.90;;;;;;4962905;28;20493;-58
2021/10/14 04:04:50;;;;;;;33.77;7.70;;;2.20;99.90;;;;;;4954843;28;20632;-58
2021/10/14 04:07:15;;;;;;;27.73;6.87;;;2.20;99.90;;;;;;4954035;28;20658;-55
2021/10/14 04:09:41;;;;;;;23.70;6.93;;;2.20;99.90;;;;;;4964122;28;20546;-56
2021/10/14 04:12:07;;;;;;;38.67;7.00;;;2.20;99.90;;;;;;4967869;28;20253;-55
2021/10/14 04:14:32;;;;;;;9.53;5.10;;;2.10;99.90;;;;;;4957350;28;20589;-56
2021/10/14 04:16:58;;;;;;;13.07;6.30;;;2.10;99.90;;;;;;4962399;28;20327;-55
2021/10/14 04:19:24;;;;;;;16.83;5.70;;;2.10;99.90;;;;;;4957512;28;20727;-57
2021/10/14 04:21:49;;;;;;;12.97;5.77;;;2.10;99.90;;;;;;4957219;28;20182;-58
2021/10/14 04:24:16;;;;;;;14.40;6.00;;;2.10;99.90;;;;;;4951656;28;20240;-60
2021/10/14 04:26:42;;;;;;;9.33;5.40;;;2.10;99.90;;;;;;4953877;28;20213;-60
2021/10/14 04:29:07;;;;;;;17.13;5.97;;;2.10;99.90;;;;;;4951479;28;20441;-59
2021/10/14 04:31:35;;;;;;;11.83;5.13;;;2.10;99.90;;;;;;4954286;28;20473;-59
2021/10/14 04:34:01;;;;;;;8.23;5.63;;;2.10;99.90;;;;;;4954431;28;20190;-59
2021/10/14 04:36:26;;;;;;;13.37;5.50;;;2.10;99.90;;;;;;4956262;28;20492;-59
2021/10/14 04:38:53;;;;;;;12.00;5.70;;;2.10;99.90;;;;;;4956337;28;20468;-60
2021/10/14 04:41:19;;;;;;;11.10;5.70;;;2.10;99.90;;;;;;4954240;28;20182;-60
2021/10/14 04:43:45;;;;;;;11.13;5.00;;;2.10;99.90;;;;;;4958763;28;20454;-60
2021/10/14 04:46:11;;;;;;;11.00;6.17;;;2.00;99.90;;;;;;4956103;28;20613;-59
2021/10/14 04:48:37;;;;;;;14.80;7.93;;;2.00;99.90;;;;;;4969932;28;20185;-60
2021/10/14 04:51:03;;;;;;;31.83;6.60;;;2.00;99.90;;;;;;4957782;28;20446;-60
2021/10/14 04:53:28;;;;;;;32.00;8.50;;;2.00;99.90;;;;;;4955751;28;20212;-60
2021/10/14 04:55:54;;;;;;;69.67;12.50;;;2.00;99.90;;;;;;4945376;28;20225;-55
2021/10/14 04:58:19;;;;;;;28.90;8.10;;;2.00;99.90;;;;;;4949245;28;20197;-60
2021/10/14 05:00:45;;;;;;;25.70;5.63;;;2.00;99.90;;;;;;4956366;28;21649;-59
2021/10/14 05:03:11;;;;;;;25.83;6.43;;;2.00;99.90;;;;;;4952243;28;20209;-59
2021/10/14 05:05:36;;;;;;;114.20;9.97;;;1.90;99.90;;;;;;4973503;28;20233;-59
2021/10/14 05:08:02;;;;;;;70.93;9.03;;;1.90;99.90;;;;;;4952251;28;20181;-59
2021/10/14 05:10:30;;;;;;;17.43;7.63;;;1.90;99.90;;;;;;4955215;28;20678;-57
2021/10/14 05:12:56;;;;;;;101.30;9.60;;;1.90;99.90;;;;;;4956480;28;20197;-59
2021/10/14 05:15:22;;;;;;;41.07;8.40;;;1.90;99.90;;;;;;4963831;28;20452;-59
2021/10/14 05:17:47;;;;;;;55.00;8.00;;;1.90;99.90;;;;;;4969533;28;20174;-59
2021/10/14 05:20:13;;;;;;;49.43;9.53;;;1.80;99.90;;;;;;4969325;28;20190;-59
2021/10/14 05:22:39;;;;;;;58.47;10.63;;;1.80;99.90;;;;;;4968425;28;20294;-59
2021/10/14 05:25:05;;;;;;;44.70;9.40;;;1.80;99.90;;;;;;4970887;28;20590;-58
2021/10/14 05:27:31;;;;;;;48.87;12.10;;;1.80;99.90;;;;;;4982621;28;20717;-59
2021/10/14 05:29:56;;;;;;;150.90;18.07;;;1.80;99.90;;;;;;4968661;28;20431;-59
2021/10/14 05:32:22;;;;;;;263.30;19.47;;;1.90;99.90;;;;;;4957250;28;20730;-60
2021/10/14 05:34:47;;;;;;;51.40;14.23;;;1.80;99.90;;;;;;4951433;28;20179;-60
2021/10/14 05:37:13;;;;;;;66.00;14.70;;;1.70;99.90;;;;;;4959235;28;20196;-59
2021/10/14 05:39:39;;;;;;;74.63;14.23;;;1.60;99.90;;;;;;4980739;28;20262;-58
2021/10/14 05:42:04;;;;;;;207.40;15.93;;;1.60;99.90;;;;;;4982649;28;20176;-59
2021/10/14 05:44:30;;;;;;;128.47;13.90;;;1.70;99.90;;;;;;4982383;28;20661;-60
2021/10/14 05:46:56;;;;;;;112.60;12.20;;;1.60;99.90;;;;;;4967361;28;20211;-59
2021/10/14 05:49:21;;;;;;;68.77;12.97;;;1.60;99.90;;;;;;4983607;28;20178;-60
2021/10/14 05:51:47;;;;;;;171.93;13.40;;;1.60;99.90;;;;;;4966444;28;20424;-59
2021/10/14 05:54:13;;;;;;;35.23;10.97;;;1.60;99.90;;;;;;4967942;28;20241;-59
2021/10/14 05:56:38;;;;;;;162.33;13.80;;;1.60;99.90;;;;;;4980774;23;20313;-55
2021/10/14 05:59:04;;;;;;;95.87;13.37;;;1.60;99.90;;;;;;4977623;28;20648;-57
2021/10/14 06:01:30;;;;;;;166.23;15.10;;;1.60;99.90;;;;;;4973848;28;20174;-58
2021/10/14 06:03:55;;;;;;;92.53;13.00;;;1.50;99.90;;;;;;4971709;28;20183;-57
2021/10/14 06:06:21;;;;;;;36.53;9.47;;;1.50;99.90;;;;;;4964691;28;20200;-56
2021/10/14 06:08:47;;;;;;;93.90;10.97;;;1.50;99.90;;;;;;4951146;28;20194;-57
2021/10/14 06:11:13;;;;;;;105.13;11.90;;;1.50;99.90;;;;;;4953698;29;20443;-55
2021/10/14 06:13:39;;;;;;;49.30;10.77;;;1.50;99.90;;;;;;4951012;29;20216;-56
2021/10/14 06:16:06;;;;;;;34.37;10.80;;;1.50;99.90;;;;;;4945993;28;20606;-57
2021/10/14 06:18:32;;;;;;;31.77;12.00;;;1.50;99.90;;;;;;4953557;29;20173;-56
2021/10/14 06:20:58;;;;;;;32.67;11.60;;;1.50;99.90;;;;;;4947356;29;20512;-57
2021/10/14 06:23:24;;;;;;;38.27;11.43;;;1.50;99.90;;;;;;4958986;28;20425;-55
2021/10/14 06:25:50;;;;;;;38.53;11.10;;;1.60;99.90;;;;;;4973563;28;20684;-55
2021/10/14 06:28:15;;;;;;;34.87;13.50;;;1.70;99.90;;;;;;4978044;28;20947;-57
2021/10/14 06:30:41;;;;;;;127.53;13.67;;;1.70;99.90;;;;;;4938483;29;20202;-58
2021/10/14 06:33:06;;;;;;;29.10;11.43;;;1.80;99.90;;;;;;4946035;29;20202;-55
2021/10/14 06:35:32;;;;;;;29.90;11.93;;;1.80;99.90;;;;;;4952924;28;20187;-58
2021/10/14 06:37:59;;;;;;;35.93;10.67;;;1.80;99.90;;;;;;4954561;29;20183;-56
2021/10/14 06:40:25;;;;;;;27.70;10.30;;;1.80;99.90;;;;;;4953672;29;20178;-56
2021/10/14 06:42:50;;;;;;;24.63;9.80;;;1.80;99.90;;;;;;4953755;29;20421;-56
2021/10/14 06:45:16;;;;;;;32.73;9.70;;;1.90;99.90;;;;;;4952934;28;20447;-57
2021/10/14 06:47:42;;;;;;;23.43;8.30;;;1.90;99.90;;;;;;4953158;28;20185;-57
2021/10/14 06:50:08;;;;;;;27.43;10.47;;;1.90;99.90;;;;;;4953367;29;20206;-55
2021/10/14 06:52:33;;;;;;;36.03;12.37;;;1.90;99.90;;;;;;4953212;28;20606;-54
2021/10/14 06:54:59;;;;;;;45.63;15.60;;;1.90;99.90;;;;;;4952525;28;20440;-56
2021/10/14 06:57:25;;;;;;;73.70;17.47;;;2.00;99.90;;;;;;4953378;28;20594;-55
2021/10/14 06:59:51;;;;;;;42.27;14.60;;;1.90;99.90;;;;;;4954221;28;20169;-56
2021/10/14 07:02:17;;;;;;;34.80;13.80;;;1.90;99.90;;;;;;4953294;28;20429;-58
2021/10/14 07:04:43;;;;;;;45.43;15.80;;;1.90;99.90;;;;;;4952165;29;20436;-53
2021/10/14 07:07:08;;;;;;;39.63;15.60;;;2.00;99.90;;;;;;4953184;28;20260;-56
2021/10/14 07:09:34;;;;;;;44.93;15.30;;;2.00;99.90;;;;;;4953598;29;20178;-55
2021/10/14 07:12:02;;;;;;;54.70;16.53;;;2.00;99.90;;;;;;4951906;28;20187;-55
2021/10/14 07:14:28;;;;;;;66.77;15.00;;;2.00;99.90;;;;;;4934258;29;20258;-56
2021/10/14 07:16:54;;;;;;;57.60;17.77;;;2.00;99.90;;;;;;4944873;29;20454;-55
2021/10/14 07:19:20;;;;;;;60.57;16.70;;;2.10;99.90;;;;;;4953198;29;20175;-57
2021/10/14 07:21:45;;;;;;;67.90;18.80;;;2.10;99.90;;;;;;4947213;29;20181;-55
2021/10/14 07:24:11;;;;;;;78.30;19.73;;;2.10;99.90;;;;;;4965393;28;20188;-56
2021/10/14 07:26:37;;;;;;;59.30;18.97;;;2.10;99.90;;;;;;4953007;29;20458;-55
2021/10/14 07:29:04;;;;;;;49.27;16.30;;;2.20;99.90;;;;;;4952439;29;20714;-57
2021/10/14 07:31:31;;;;;;;46.90;15.70;;;2.20;99.90;;;;;;4952675;28;20211;-57
2021/10/14 07:33:57;;;;;;;109.43;16.40;;;2.20;99.90;;;;;;4952528;28;20465;-55
2021/10/14 07:36:22;;;;;;;57.63;16.83;;;2.30;99.90;;;;;;4951812;28;20450;-56
2021/10/14 07:38:48;;;;;;;38.67;16.90;;;2.30;99.90;;;;;;4947863;29;20199;-57
2021/10/14 07:41:14;;;;;;;50.70;16.70;;;2.40;99.90;;;;;;4945967;28;20651;-55
2021/10/14 07:43:39;;;;;;;66.87;18.63;;;2.40;99.90;;;;;;4952377;29;20194;-55
2021/10/14 07:46:07;;;;;;;46.77;17.73;;;2.50;99.90;;;;;;4952246;29;20214;-55
2021/10/14 07:48:34;;;;;;;57.87;16.90;;;2.50;99.90;;;;;;4952309;29;20257;-54
2021/10/14 07:51:00;;;;;;;52.67;19.37;;;2.50;99.90;;;;;;4952554;28;20443;-55
2021/10/14 07:53:26;;;;;;;59.17;17.00;;;2.60;99.90;;;;;;4952412;29;20464;-56
2021/10/14 07:55:52;;;;;;;51.70;16.93;;;2.60;99.90;;;;;;4949602;28;20840;-55
2021/10/14 07:58:17;;;;;;;51.93;16.30;;;2.70;99.90;;;;;;4951995;28;20190;-56
2021/10/14 08:00:43;;;;;;;35.17;15.80;;;2.70;99.90;;;;;;4952306;29;20186;-56
2021/10/14 08:03:09;;;;;;;59.40;17.63;;;2.80;99.90;;;;;;4952037;29;20189;-55
2021/10/14 08:05:35;;;;;;;57.53;17.47;;;2.90;99.90;;;;;;4951404;28;20279;-55
2021/10/14 08:08:01;;;;;;;51.70;19.23;;;3.00;99.90;;;;;;4952620;28;20437;-55
2021/10/14 08:10:27;;;;;;;73.73;23.37;;;3.00;99.90;;;;;;4951486;29;20442;-55
2021/10/14 08:12:53;;;;;;;70.77;23.23;;;3.10;99.90;;;;;;4951014;28;20236;-54
2021/10/14 08:15:19;;;;;;;76.73;25.00;;;3.20;99.90;;;;;;4950215;28;20713;-56
2021/10/14 08:17:44;;;;;;;87.23;25.10;;;3.30;99.90;;;;;;4952496;29;20173;-54
2021/10/14 08:20:10;;;;;;;78.07;25.20;;;3.40;99.90;;;;;;4952122;29;20240;-56
2021/10/14 08:22:36;;;;;;;92.43;23.73;;;3.50;99.90;;;;;;4948884;28;20183;-58
2021/10/14 08:25:07;;;;;;;78.30;23.30;;;3.60;99.90;;;;;;4952075;28;20478;-56
2021/10/14 08:27:33;;;;;;;79.00;21.53;;;3.60;99.90;;;;;;4951647;28;20437;-57
2021/10/14 08:29:59;;;;;;;51.53;19.37;;;3.70;99.90;;;;;;4950850;29;20499;-54
2021/10/14 08:32:25;;;;;;;33.57;13.90;;;3.70;99.90;;;;;;4947683;28;20652;-58
2021/10/14 08:34:50;;;;;;;29.33;13.07;;;3.80;99.90;;;;;;4951990;28;20210;-56
2021/10/14 08:37:22;;;;;;;31.80;13.03;;;3.90;99.90;;;;;;4965155;28;20440;-57
2021/10/14 08:39:48;;;;;;;27.00;10.60;;;4.00;99.90;;;;;;4933301;29;20164;-57
2021/10/14 08:42:14;;;;;;;19.13;10.03;;;4.10;99.90;;;;;;4939801;29;20521;-57
2021/10/14 08:44:40;;;;;;;14.67;8.30;;;4.20;99.90;;;;;;4951638;28;20915;-58
2021/10/14 08:47:06;;;;;;;13.30;7.50;;;4.30;99.90;;;;;;4950957;29;20446;-57
2021/10/14 08:49:32;;;;;;;17.20;7.50;;;4.40;99.90;;;;;;4965466;28;20174;-58
2021/10/14 08:51:58;;;;;;;15.83;7.90;;;4.60;99.90;;;;;;4950836;29;20977;-55
2021/10/14 08:54:24;;;;;;;19.47;9.40;;;4.70;99.90;;;;;;4951452;28;20458;-56
2021/10/14 08:56:50;;;;;;;20.70;10.97;;;4.80;99.90;;;;;;4951047;29;20454;-56
2021/10/14 08:59:18;;;;;;;22.57;11.33;;;4.90;99.90;;;;;;4950942;29;20805;-55
2021/10/14 09:02:10;;;;;;;17.13;9.37;;;5.10;99.90;;;;;;4951203;28;20349;-56
2021/10/14 09:05:00;;;;;;;24.20;11.47;;;5.20;99.90;;;;;;4949931;28;20777;-57
2021/10/14 09:07:31;;;;;;;16.30;9.87;;;5.40;99.90;;;;;;4965204;28;20466;-59
2021/10/14 09:10:11;;;;;;;16.83;9.87;;;5.60;99.90;;;;;;4951327;28;20426;-58
2021/10/14 09:12:39;;;;;;;22.73;10.00;;;5.80;99.90;;;;;;4950835;28;20462;-57
2021/10/14 09:15:07;;;;;;;30.73;10.43;;;6.00;99.90;;;;;;4951175;29;20410;-59
2021/10/14 09:17:38;;;;;;;19.67;10.27;;;6.10;99.90;;;;;;4950831;28;20558;-57
2021/10/14 09:20:24;;;;;;;24.73;10.90;;;6.30;99.90;;;;;;4950804;29;20427;-58
2021/10/14 09:22:58;;;;;;;20.97;11.27;;;6.50;99.90;;;;;;4950870;29;20492;-54
2021/10/14 09:25:34;;;;;;;17.67;10.13;;;6.60;99.90;;;;;;4950227;28;20460;-59
2021/10/14 09:28:14;;;;;;;21.03;8.90;;;6.80;99.90;;;;;;4951392;29;20410;-56
2021/10/14 09:30:48;;;;;;;18.63;10.10;;;7.00;99.90;;;;;;4950741;29;20473;-55
2021/10/14 09:33:38;;;;;;;15.10;9.00;;;7.20;99.90;;;;;;4951011;28;21005;-56
2021/10/14 09:36:24;;;;;;;16.70;9.03;;;7.40;99.90;;;;;;4931638;29;20440;-59
2021/10/14 09:39:02;;;;;;;15.03;8.60;;;7.60;99.90;;;;;;4941846;29;20430;-58
2021/10/14 09:41:30;;;;;;;16.30;8.70;;;7.80;99.90;;;;;;4946889;28;20422;-59
2021/10/14 09:44:12;;;;;;;18.40;9.10;;;8.10;99.90;;;;;;4949602;29;20811;-57
2021/10/14 09:46:39;;;;;;;19.97;10.10;;;8.30;99.90;;;;;;4946746;28;20449;-63
2021/10/14 09:49:06;;;;;;;20.63;7.10;;;8.50;99.90;;;;;;4949451;28;20818;-59
2021/10/14 09:51:33;;;;;;;16.43;7.93;;;8.70;98.80;;;;;;4955210;28;20577;-60
2021/10/14 09:54:00;;;;;;;16.13;7.23;;;8.80;98.20;;;;;;4952015;28;20469;-59
2021/10/14 09:56:26;;;;;;;15.30;7.20;;;9.00;93.60;;;;;;4949840;28;20909;-58
2021/10/14 09:58:52;;;;;;;10.50;5.60;;;9.10;87.50;;;;;;4949908;29;20811;-57
2021/10/14 10:01:19;;;;;;;8.83;4.67;;;9.20;83.50;;;;;;4951392;28;20520;-58
2021/10/14 10:03:45;;;;;;;12.20;5.83;;;9.30;67.40;;;;;;4947356;28;20449;-58
2021/10/14 10:06:12;;;;;;;6.23;3.30;;;9.40;71.60;;;;;;4947499;28;20955;-59
2021/10/14 10:08:42;;;;;;;11.47;4.17;;;9.60;70.30;;;;;;4947526;28;20794;-58
2021/10/14 10:11:12;;;;;;;7.73;3.40;;;9.70;60.90;;;;;;4953438;28;20516;-58
2021/10/14 10:13:44;;;;;;;3.50;2.07;;;9.80;59.60;;;;;;4950299;28;20532;-58
2021/10/14 10:16:18;;;;;;;3.53;2.20;;;9.90;57.60;;;;;;4950416;28;20458;-58
2021/10/14 10:18:49;;;;;;;10.30;3.87;;;10.10;57.30;;;;;;4946775;29;20434;-58
2021/10/14 10:21:29;;;;;;;6.17;2.10;;;10.30;57.10;;;;;;4945246;29;20651;-57
2021/10/14 10:23:56;;;;;;;5.77;2.77;;;10.50;55.20;;;;;;4953236;28;20452;-55
2021/10/14 10:26:36;;;;;;;6.23;3.13;;;10.70;55.00;;;;;;4961202;28;20983;-57
2021/10/14 10:29:13;;;;;;;5.43;3.17;;;10.90;56.10;;;;;;4946560;28;20446;-55
2021/10/14 10:31:56;;;;;;;7.63;2.53;;;11.10;54.30;;;;;;4942691;29;20525;-57
2021/10/14 10:35:00;;;;;;;4.20;2.80;;;11.30;53.00;;;;;;4949028;29;20525;-58
2021/10/14 10:37:28;;;;;;;3.70;2.80;;;11.40;52.60;;;;;;4949384;28;20700;-58
2021/10/14 10:39:57;;;;;;;3.10;2.50;;;11.60;52.80;;;;;;4949992;28;20714;-57
2021/10/14 10:42:31;;;;;;;6.53;3.07;;;11.80;53.10;;;;;;4949209;29;20430;-57
2021/10/14 10:45:11;;;;;;;4.80;2.80;;;12.00;52.40;;;;;;4949873;28;20438;-57
2021/10/14 10:47:58;;;;;;;5.30;2.70;;;12.20;52.40;;;;;;4951188;28;20492;-58
2021/10/14 10:50:33;;;;;;;2.27;2.07;;;12.40;51.60;;;;;;4951546;29;20526;-59
2021/10/14 10:53:02;;;;;;;1.87;1.60;;;12.60;49.50;;;;;;4952715;28;20464;-57
2021/10/14 10:55:27;;;;;;;2.93;2.60;;;12.80;49.40;;;;;;4949663;28;20413;-57
2021/10/14 10:57:54;;;;;;;6.13;2.50;;;13.00;47.20;;;;;;4953499;29;20430;-59
2021/10/14 11:00:22;;;;;;;2.33;2.13;;;13.30;46.70;;;;;;4950731;28;20194;-61
2021/10/14 11:03:11;;;;;;;4.17;2.67;;;13.70;47.90;;;;;;4950478;29;20507;-57
2021/10/14 11:05:39;;;;;;;5.10;2.60;;;14.20;48.90;;;;;;4951539;28;20541;-63
2021/10/14 11:08:07;;;;;;;4.27;2.70;;;14.80;48.00;;;;;;4952646;29;21000;-58
2021/10/14 11:10:32;;;;;;;2.60;2.13;;;15.30;47.30;;;;;;4952354;29;20468;-58
2021/10/14 11:12:59;;;;;;;3.27;2.73;;;15.80;46.00;;;;;;4953726;29;20489;-55
2021/10/14 11:15:27;;;;;;;2.73;1.90;;;16.20;45.10;;;;;;4953229;28;20245;-57
2021/10/14 11:18:06;;;;;;;3.83;2.10;;;16.60;43.60;;;;;;4953262;28;20430;-57
2021/10/14 11:20:34;;;;;;;2.23;2.03;;;17.00;42.80;;;;;;4952620;29;20440;-57
2021/10/14 11:23:07;;;;;;;3.77;2.50;;;17.50;42.10;;;;;;4953213;28;20418;-58
2021/10/14 11:25:34;;;;;;;2.20;1.70;;;17.90;41.50;;;;;;4953194;28;20509;-58
2021/10/14 11:28:05;;;;;;;1.97;1.87;;;18.40;40.30;;;;;;4952419;28;20461;-59
2021/10/14 11:30:41;;;;;;;2.90;1.70;;;18.80;39.00;;;;;;4948950;28;21201;-59
2021/10/14 11:33:13;;;;;;;4.13;1.70;;;19.30;39.60;;;;;;4945227;28;20461;-56
2021/10/14 11:35:40;;;;;;;2.20;1.80;;;19.70;37.30;;;;;;4939654;28;20537;-61
2021/10/14 11:38:14;;;;;;;1.97;1.47;;;20.10;37.10;;;;;;4942463;28;20473;-62
2021/10/14 11:40:40;;;;;;;2.97;1.87;;;20.50;37.00;;;;;;4946133;28;20437;-60
2021/10/14 11:43:07;;;;;;;1.37;1.27;;;20.70;35.40;;;;;;4949428;28;20422;-62
2021/10/14 11:45:33;;;;;;;12.33;5.50;;;21.10;34.60;;;;;;4943533;28;20532;-58
2021/10/14 11:47:58;;;;;;;2.27;1.70;;;21.50;33.90;;;;;;4943470;28;20911;-60
2021/10/14 11:50:28;;;;;;;2.17;1.97;;;21.80;33.60;;;;;;4945654;29;20178;-61
2021/10/14 11:53:02;;;;;;;2.17;1.93;;;22.10;33.30;;;;;;4940670;28;20212;-58
2021/10/14 11:55:27;;;;;;;3.72;2.40;;;22.30;33.50;;;;;;4943791;28;20237;-58
2021/10/14 11:58:00;;;;;;;2.80;2.17;;;22.40;32.00;;;;;;4972252;23;20702;-62
2021/10/14 12:00:29;;;;;;;5.20;2.40;;;22.20;31.60;;;;;;4958424;28;20273;-62
2021/10/14 12:02:57;;;;;;;3.17;2.05;;;22.20;32.00;;;;;;4963389;28;20503;-60
2021/10/14 12:05:24;;;;;;;3.63;1.90;;;22.30;31.90;;;;;;4960699;28;20188;-60
2021/10/14 12:07:50;;;;;;;4.32;2.10;;;22.40;32.50;;;;;;4954555;28;20193;-62
2021/10/14 12:10:37;;;;;;;2.70;2.15;;;22.40;31.60;;;;;;4957499;28;20570;-62
2021/10/14 12:13:05;;;;;;;9.23;2.70;;;22.00;32.20;;;;;;4956233;28;20491;-63
2021/10/14 12:15:31;;;;;;;2.23;2.03;;;22.00;33.90;;;;;;4960044;28;20190;-61
2021/10/14 12:17:57;;;;;;;5.17;2.57;;;22.20;34.50;;;;;;4958330;28;20647;-58
2021/10/14 12:20:28;;;;;;;3.83;2.37;;;22.30;34.40;;;;;;4961718;28;20193;-58
2021/10/14 12:22:56;;;;;;;3.97;2.40;;;22.40;34.00;;;;;;4956719;28;20190;-57
2021/10/14 12:25:40;;;;;;;2.00;1.60;;;22.40;33.10;;;;;;4961027;28;20174;-58
2021/10/14 12:28:13;;;;;;;3.30;2.50;;;22.20;32.40;;;;;;4950118;28;20200;-57
2021/10/14 12:30:40;;;;;;;2.63;2.23;;;21.90;32.40;;;;;;4960248;28;20432;-57
2021/10/14 12:33:12;;;;;;;3.30;1.80;;;21.40;33.60;;;;;;4963886;28;20841;-57
2021/10/14 12:36:01;;;;;;;3.03;2.07;;;21.10;34.80;;;;;;4952823;28;20484;-58
2021/10/14 12:38:41;;;;;;;2.87;2.10;;;20.90;35.50;;;;;;4956144;28;20437;-57
2021/10/14 12:41:14;;;;;;;2.90;2.00;;;20.70;34.90;;;;;;4958195;28;20520;-58
2021/10/14 12:44:06;;;;;;;2.13;1.80;;;20.70;36.10;;;;;;4959279;28;20457;-58